Terminal Aerodrome Forecast
Issued by NWS Jackson, KY

Home | Current Version | Previous Version | Text Only | Print | Product List | Glossary On
Versions: 1 2 3 4 5 6 7 8 9 10 11 12 13 14 15
000
FTUS43 KJKL 230532
TAFJKL
TAF
KJKL 230532Z 2306/2406 24011G19KT P6SM VCSH BKN050
     FM230800 24010G18KT P6SM SCT100
     FM231500 24012G21KT P6SM VCSH OVC030
     FM240100 25009KT P6SM VCSH OVC015=

USA.gov is the U.S. government's official web portal to all federal, state and local government web resources and services.